sensor_id;sensor_type;location;lat;lon;timestamp;pressure;altitude;pressure_sealevel;temperature;humidity
66681;BME280;53575;51.366;12.350;2023-05-21T00:00:41;100502.28;;;14.81;96.18
66681;BME280;53575;51.366;12.350;2023-05-21T00:03:06;100503.16;;;14.80;96.15
66681;BME280;53575;51.366;12.350;2023-05-21T00:05:38;100505.09;;;14.72;96.92
66681;BME280;53575;51.366;12.350;2023-05-21T00:08:04;100497.28;;;14.68;97.16
66681;BME280;53575;51.366;12.350;2023-05-21T00:10:30;100495.50;;;14.70;97.49
66681;BME280;53575;51.366;12.350;2023-05-21T00:12:55;100488.50;;;14.69;97.29
66681;BME280;53575;51.366;12.350;2023-05-21T00:15:20;100484.41;;;14.55;98.35
66681;BME280;53575;51.366;12.350;2023-05-21T00:17:46;100482.63;;;14.56;98.50
66681;BME280;53575;51.366;12.350;2023-05-21T00:20:11;100480.00;;;14.56;98.49
66681;BME280;53575;51.366;12.350;2023-05-21T00:22:37;100472.75;;;14.67;98.13
66681;BME280;53575;51.366;12.350;2023-05-21T00:25:03;100472.59;;;14.75;97.26
66681;BME280;53575;51.366;12.350;2023-05-21T00:27:28;100470.88;;;14.72;97.33
66681;BME280;53575;51.366;12.350;2023-05-21T00:29:54;100473.66;;;14.66;97.69
66681;BME280;53575;51.366;12.350;2023-05-21T00:32:19;100477.97;;;14.70;97.32
66681;BME280;53575;51.366;12.350;2023-05-21T00:34:45;100477.22;;;14.63;97.48
66681;BME280;53575;51.366;12.350;2023-05-21T00:37:11;100478.31;;;14.52;98.38
66681;BME280;53575;51.366;12.350;2023-05-21T00:39:39;100468.97;;;14.35;99.52
66681;BME280;53575;51.366;12.350;2023-05-21T00:42:05;100472.56;;;14.30;100.00
66681;BME280;53575;51.366;12.350;2023-05-21T00:44:30;100468.13;;;14.35;100.00
66681;BME280;53575;51.366;12.350;2023-05-21T00:47:01;100471.41;;;14.46;99.52
66681;BME280;53575;51.366;12.350;2023-05-21T00:49:27;100465.19;;;14.49;98.65
66681;BME280;53575;51.366;12.350;2023-05-21T00:51:53;100468.72;;;14.49;98.61
66681;BME280;53575;51.366;12.350;2023-05-21T00:54:20;100474.03;;;14.45;98.88
66681;BME280;53575;51.366;12.350;2023-05-21T00:56:46;100476.91;;;14.32;100.00
66681;BME280;53575;51.366;12.350;2023-05-21T00:59:13;100476.09;;;14.29;99.91
66681;BME280;53575;51.366;12.350;2023-05-21T01:01:41;100471.75;;;14.28;100.00
66681;BME280;53575;51.366;12.350;2023-05-21T01:04:07;100476.09;;;14.29;100.00
66681;BME280;53575;51.366;12.350;2023-05-21T01:06:33;100470.78;;;14.32;100.00
66681;BME280;53575;51.366;12.350;2023-05-21T01:08:59;100462.34;;;14.14;100.00
66681;BME280;53575;51.366;12.350;2023-05-21T01:11:41;100458.91;;;14.12;100.00
66681;BME280;53575;51.366;12.350;2023-05-21T01:14:09;100459.81;;;14.10;100.00
66681;BME280;53575;51.366;12.350;2023-05-21T01:16:36;100459.66;;;14.18;100.00
66681;BME280;53575;51.366;12.350;2023-05-21T01:19:04;100454.47;;;14.14;100.00
66681;BME280;53575;51.366;12.350;2023-05-21T01:21:33;100452.81;;;14.09;100.00
66681;BME280;53575;51.366;12.350;2023-05-21T01:24:02;100440.25;;;14.25;100.00
66681;BME280;53575;51.366;12.350;2023-05-21T01:26:30;100448.16;;;14.25;100.00
66681;BME280;53575;51.366;12.350;2023-05-21T01:28:57;100444.66;;;14.24;100.00
66681;BME280;53575;51.366;12.350;2023-05-21T01:31:36;100448.97;;;14.27;100.00
66681;BME280;53575;51.366;12.350;2023-05-21T01:34:10;100443.00;;;14.19;100.00
66681;BME280;53575;51.366;12.350;2023-05-21T01:36:40;100441.94;;;14.29;100.00
66681;BME280;53575;51.366;12.350;2023-05-21T01:39:32;100443.81;;;14.22;100.00
66681;BME280;53575;51.366;12.350;2023-05-21T01:41:57;100437.69;;;14.22;100.00
66681;BME280;53575;51.366;12.350;2023-05-21T01:44:23;100432.28;;;14.29;100.00
66681;BME280;53575;51.366;12.350;2023-05-21T01:46:52;100432.47;;;14.19;100.00
66681;BME280;53575;51.366;12.350;2023-05-21T01:49:18;100432.63;;;14.12;100.00
66681;BME280;53575;51.366;12.350;2023-05-21T01:51:45;100433.47;;;14.13;100.00
66681;BME280;53575;51.366;12.350;2023-05-21T01:54:11;100436.25;;;14.04;100.00
66681;BME280;53575;51.366;12.350;2023-05-21T01:56:36;100438.16;;;13.97;100.00
66681;BME280;53575;51.366;12.350;2023-05-21T01:59:02;100435.72;;;13.85;100.00
66681;BME280;53575;51.366;12.350;2023-05-21T02:01:27;100436.66;;;13.81;100.00
66681;BME280;53575;51.366;12.350;2023-05-21T02:03:56;100438.34;;;13.86;100.00
66681;BME280;53575;51.366;12.350;2023-05-21T02:06:22;100439.16;;;13.88;100.00
66681;BME280;53575;51.366;12.350;2023-05-21T02:08:48;100430.56;;;13.80;100.00
66681;BME280;53575;51.366;12.350;2023-05-21T02:11:13;100434.03;;;13.81;100.00
66681;BME280;53575;51.366;12.350;2023-05-21T02:13:39;100441.81;;;13.87;100.00
66681;BME280;53575;51.366;12.350;2023-05-21T02:16:11;100434.09;;;13.79;100.00
66681;BME280;53575;51.366;12.350;2023-05-21T02:18:39;100436.66;;;13.81;100.00
66681;BME280;53575;51.366;12.350;2023-05-21T02:21:06;100426.38;;;13.70;100.00
66681;BME280;53575;51.366;12.350;2023-05-21T02:23:31;100432.41;;;13.75;100.00
66681;BME280;53575;51.366;12.350;2023-05-21T02:25:57;100430.69;;;13.74;100.00
66681;BME280;53575;51.366;12.350;2023-05-21T02:28:22;100422.03;;;13.68;100.00
66681;BME280;53575;51.366;12.350;2023-05-21T02:30:48;100424.56;;;13.72;100.00
66681;BME280;53575;51.366;12.350;2023-05-21T02:33:15;100429.03;;;13.67;100.00
66681;BME280;53575;51.366;12.350;2023-05-21T02:35:40;100424.56;;;13.72;100.00
66681;BME280;53575;51.366;12.350;2023-05-21T02:38:06;100425.56;;;13.65;100.00
66681;BME280;53575;51.366;12.350;2023-05-21T02:40:33;100429.13;;;13.62;100.00
66681;BME280;53575;51.366;12.350;2023-05-21T02:42:59;100429.31;;;13.52;100.00
66681;BME280;53575;51.366;12.350;2023-05-21T02:45:24;100431.72;;;13.64;100.00
66681;BME280;53575;51.366;12.350;2023-05-21T02:47:50;100436.31;;;13.51;100.00
66681;BME280;53575;51.366;12.350;2023-05-21T02:50:15;100433.94;;;13.34;100.00
66681;BME280;53575;51.366;12.350;2023-05-21T02:52:41;100433.75;;;13.48;100.00
66681;BME280;53575;51.366;12.350;2023-05-21T02:55:06;100430.91;;;13.60;100.00
66681;BME280;53575;51.366;12.350;2023-05-21T02:57:32;100431.03;;;13.53;100.00
66681;BME280;53575;51.366;12.350;2023-05-21T02:59:57;100434.50;;;13.55;100.00
66681;BME280;53575;51.366;12.350;2023-05-21T03:02:23;100432.97;;;13.41;100.00
66681;BME280;53575;51.366;12.350;2023-05-21T03:04:48;100433.03;;;13.37;100.00
66681;BME280;53575;51.366;12.350;2023-05-21T03:07:15;100426.81;;;13.43;100.00
66681;BME280;53575;51.366;12.350;2023-05-21T03:09:44;100418.84;;;13.49;100.00
66681;BME280;53575;51.366;12.350;2023-05-21T03:12:09;100428.44;;;13.50;100.00
66681;BME280;53575;51.366;12.350;2023-05-21T03:14:36;100425.16;;;13.37;100.00
66681;BME280;53575;51.366;12.350;2023-05-21T03:17:02;100414.75;;;13.32;100.00
66681;BME280;53575;51.366;12.350;2023-05-21T03:19:33;100420.69;;;13.44;100.00
66681;BME280;53575;51.366;12.350;2023-05-21T03:22:00;100418.09;;;13.40;100.00
66681;BME280;53575;51.366;12.350;2023-05-21T03:24:27;100409.41;;;13.37;100.00
66681;BME280;53575;51.366;12.350;2023-05-21T03:26:54;100413.69;;;13.44;100.00
66681;BME280;53575;51.366;12.350;2023-05-21T03:29:19;100408.72;;;13.26;100.00
66681;BME280;53575;51.366;12.350;2023-05-21T03:31:46;100416.38;;;13.38;100.00
66681;BME280;53575;51.366;12.350;2023-05-21T03:34:11;100415.63;;;13.31;100.00
66681;BME280;53575;51.366;12.350;2023-05-21T03:36:36;100418.03;;;13.45;100.00
66681;BME280;53575;51.366;12.350;2023-05-21T03:39:02;100412.69;;;13.51;100.00
66681;BME280;53575;51.366;12.350;2023-05-21T03:41:28;100411.09;;;13.41;100.00
66681;BME280;53575;51.366;12.350;2023-05-21T03:43:54;100412.81;;;13.42;100.00
66681;BME280;53575;51.366;12.350;2023-05-21T03:46:19;100409.38;;;13.40;100.00
66681;BME280;53575;51.366;12.350;2023-05-21T03:48:45;100415.50;;;13.39;100.00
66681;BME280;53575;51.366;12.350;2023-05-21T03:51:10;100408.56;;;13.36;100.00
66681;BME280;53575;51.366;12.350;2023-05-21T03:53:37;100414.50;;;13.48;100.00
66681;BME280;53575;51.366;12.350;2023-05-21T03:56:03;100414.66;;;13.37;100.00
66681;BME280;53575;51.366;12.350;2023-05-21T03:58:29;100416.34;;;13.41;100.00
66681;BME280;53575;51.366;12.350;2023-05-21T04:00:55;100411.97;;;13.41;100.00
66681;BME280;53575;51.366;12.350;2023-05-21T04:03:20;100412.97;;;13.33;100.00
66681;BME280;53575;51.366;12.350;2023-05-21T04:05:45;100417.28;;;13.35;100.00
66681;BME280;53575;51.366;12.350;2023-05-21T04:08:11;100419.75;;;13.48;100.00
66681;BME280;53575;51.366;12.350;2023-05-21T04:10:37;100417.88;;;13.54;100.00
66681;BME280;53575;51.366;12.350;2023-05-21T04:13:03;100425.19;;;13.34;100.00
66681;BME280;53575;51.366;12.350;2023-05-21T04:15:28;100425.72;;;13.56;100.00
66681;BME280;53575;51.366;12.350;2023-05-21T04:17:53;100423.06;;;13.59;100.00
66681;BME280;53575;51.366;12.350;2023-05-21T04:20:19;100422.84;;;13.70;100.00
66681;BME280;53575;51.366;12.350;2023-05-21T04:22:45;100428.31;;;13.59;100.00
66681;BME280;53575;51.366;12.350;2023-05-21T04:25:11;100436.06;;;13.65;100.00
66681;BME280;53575;51.366;12.350;2023-05-21T04:27:36;100428.84;;;13.79;100.00
66681;BME280;53575;51.366;12.350;2023-05-21T04:30:02;100427.00;;;13.83;100.00
66681;BME280;53575;51.366;12.350;2023-05-21T04:32:29;100431.50;;;13.78;100.00
66681;BME280;53575;51.366;12.350;2023-05-21T04:34:55;100433.09;;;13.85;100.00
66681;BME280;53575;51.366;12.350;2023-05-21T04:37:20;100432.31;;;13.81;100.00
66681;BME280;53575;51.366;12.350;2023-05-21T04:39:48;100439.16;;;13.88;100.00
66681;BME280;53575;51.366;12.350;2023-05-21T04:42:14;100433.91;;;13.88;100.00
66681;BME280;53575;51.366;12.350;2023-05-21T04:44:39;100434.81;;;13.89;100.00
66681;BME280;53575;51.366;12.350;2023-05-21T04:47:05;100430.41;;;13.89;100.00
66681;BME280;53575;51.366;12.350;2023-05-21T04:49:32;100429.50;;;13.90;100.00
66681;BME280;53575;51.366;12.350;2023-05-21T04:51:59;100431.28;;;13.90;100.00
66681;BME280;53575;51.366;12.350;2023-05-21T04:54:25;100431.28;;;13.90;100.00
66681;BME280;53575;51.366;12.350;2023-05-21T04:56:50;100423.34;;;13.92;100.00
66681;BME280;53575;51.366;12.350;2023-05-21T04:59:16;100431.13;;;13.98;100.00
66681;BME280;53575;51.366;12.350;2023-05-21T05:01:42;100428.50;;;13.98;100.00
66681;BME280;53575;51.366;12.350;2023-05-21T05:04:08;100436.25;;;14.04;100.00
66681;BME280;53575;51.366;12.350;2023-05-21T05:06:33;100426.56;;;14.09;100.00
66681;BME280;53575;51.366;12.350;2023-05-21T05:08:59;100423.78;;;14.15;100.00
66681;BME280;53575;51.366;12.350;2023-05-21T05:11:24;100431.50;;;14.24;100.00
66681;BME280;53575;51.366;12.350;2023-05-21T05:13:51;100423.63;;;14.24;100.00
66681;BME280;53575;51.366;12.350;2023-05-21T05:16:16;100426.06;;;14.35;100.00
66681;BME280;53575;51.366;12.350;2023-05-21T05:18:49;100423.09;;;14.52;100.00
66681;BME280;53575;51.366;12.350;2023-05-21T05:21:14;100415.84;;;14.63;100.00
66681;BME280;53575;51.366;12.350;2023-05-21T05:23:40;100421.72;;;14.76;100.00
66681;BME280;53575;51.366;12.350;2023-05-21T05:26:05;100421.78;;;14.73;100.00
66681;BME280;53575;51.366;12.350;2023-05-21T05:28:31;100423.41;;;14.78;100.00
66681;BME280;53575;51.366;12.350;2023-05-21T05:30:56;100424.28;;;14.79;100.00
66681;BME280;53575;51.366;12.350;2023-05-21T05:33:21;100422.50;;;14.79;100.00
66681;BME280;53575;51.366;12.350;2023-05-21T05:35:47;100419.53;;;14.96;99.72
66681;BME280;53575;51.366;12.350;2023-05-21T05:38:14;100419.25;;;15.08;98.46
66681;BME280;53575;51.366;12.350;2023-05-21T05:40:39;100419.75;;;15.24;97.86
66681;BME280;53575;51.366;12.350;2023-05-21T05:43:05;100415.09;;;15.35;97.04
66681;BME280;53575;51.366;12.350;2023-05-21T05:45:30;100416.44;;;15.52;95.86
66681;BME280;53575;51.366;12.350;2023-05-21T05:47:56;100416.13;;;15.64;95.19
66681;BME280;53575;51.366;12.350;2023-05-21T05:50:21;100408.22;;;15.64;95.54
66681;BME280;53575;51.366;12.350;2023-05-21T05:52:47;100414.09;;;15.77;94.57
66681;BME280;53575;51.366;12.350;2023-05-21T05:55:12;100414.63;;;15.90;94.10
66681;BME280;53575;51.366;12.350;2023-05-21T05:57:38;100408.34;;;15.95;93.69
66681;BME280;53575;51.366;12.350;2023-05-21T06:00:04;100407.09;;;16.08;93.33
66681;BME280;53575;51.366;12.350;2023-05-21T06:02:29;100411.25;;;16.17;93.03
66681;BME280;53575;51.366;12.350;2023-05-21T06:04:55;100399.25;;;16.38;92.34
66681;BME280;53575;51.366;12.350;2023-05-21T06:07:20;100402.69;;;16.40;91.56
66681;BME280;53575;51.366;12.350;2023-05-21T06:09:46;100400.53;;;16.54;92.21
66681;BME280;53575;51.366;12.350;2023-05-21T06:12:11;100407.19;;;16.68;91.62
66681;BME280;53575;51.366;12.350;2023-05-21T06:14:40;100402.50;;;16.77;90.03
66681;BME280;53575;51.366;12.350;2023-05-21T06:17:06;100406.69;;;16.85;89.81
66681;BME280;53575;51.366;12.350;2023-05-21T06:19:31;100403.59;;;17.00;89.23
66681;BME280;53575;51.366;12.350;2023-05-21T06:21:57;100394.50;;;17.09;89.21
66681;BME280;53575;51.366;12.350;2023-05-21T06:24:22;100406.41;;;17.22;88.61
66681;BME280;53575;51.366;12.350;2023-05-21T06:26:47;100399.91;;;17.32;87.65
66681;BME280;53575;51.366;12.350;2023-05-21T06:29:13;100402.44;;;17.35;87.45
66681;BME280;53575;51.366;12.350;2023-05-21T06:31:38;100403.19;;;17.40;88.04
66681;BME280;53575;51.366;12.350;2023-05-21T06:34:04;100406.38;;;17.50;87.53
66681;BME280;53575;51.366;12.350;2023-05-21T06:36:29;100402.72;;;17.54;86.81
66681;BME280;53575;51.366;12.350;2023-05-21T06:38:56;100405.25;;;17.57;86.90
66681;BME280;53575;51.366;12.350;2023-05-21T06:41:28;100410.44;;;17.60;86.63
66681;BME280;53575;51.366;12.350;2023-05-21T06:43:54;100409.16;;;17.72;86.23
66681;BME280;53575;51.366;12.350;2023-05-21T06:46:20;100406.31;;;17.78;85.83
66681;BME280;53575;51.366;12.350;2023-05-21T06:48:45;100405.53;;;17.76;86.51
66681;BME280;53575;51.366;12.350;2023-05-21T06:51:11;100409.03;;;17.76;87.60
66681;BME280;53575;51.366;12.350;2023-05-21T06:53:37;100410.47;;;17.87;86.86
66681;BME280;53575;51.366;12.350;2023-05-21T06:56:02;100408.47;;;17.93;86.44
66681;BME280;53575;51.366;12.350;2023-05-21T06:58:28;100399.38;;;18.00;86.44
66681;BME280;53575;51.366;12.350;2023-05-21T07:00:59;100398.25;;;18.08;86.26
66681;BME280;53575;51.366;12.350;2023-05-21T07:03:25;100403.25;;;18.15;85.77
66681;BME280;53575;51.366;12.350;2023-05-21T07:05:52;100402.09;;;18.24;86.60
66681;BME280;53575;51.366;12.350;2023-05-21T07:08:17;100404.66;;;18.25;86.62
66681;BME280;53575;51.366;12.350;2023-05-21T07:10:44;100402.69;;;18.31;86.13
66681;BME280;53575;51.366;12.350;2023-05-21T07:13:10;100409.56;;;18.36;86.32
66681;BME280;53575;51.366;12.350;2023-05-21T07:15:35;100397.94;;;18.40;85.93
66681;BME280;53575;51.366;12.350;2023-05-21T07:18:01;100402.22;;;18.44;85.30
66681;BME280;53575;51.366;12.350;2023-05-21T07:20:27;100396.56;;;18.54;85.08
66681;BME280;53575;51.366;12.350;2023-05-21T07:22:53;100394.72;;;18.56;84.88
66681;BME280;53575;51.366;12.350;2023-05-21T07:25:18;100398.34;;;18.53;85.84
66681;BME280;53575;51.366;12.350;2023-05-21T07:27:44;100393.91;;;18.54;86.34
66681;BME280;53575;51.366;12.350;2023-05-21T07:30:09;100391.97;;;18.59;86.05
66681;BME280;53575;51.366;12.350;2023-05-21T07:32:35;100396.91;;;18.68;85.63
66681;BME280;53575;51.366;12.350;2023-05-21T07:35:01;100397.63;;;18.73;84.93
66681;BME280;53575;51.366;12.350;2023-05-21T07:37:26;100395.50;;;18.83;84.78
66681;BME280;53575;51.366;12.350;2023-05-21T07:39:53;100394.38;;;18.88;84.09
66681;BME280;53575;51.366;12.350;2023-05-21T07:42:19;100394.38;;;18.88;83.79
66681;BME280;53575;51.366;12.350;2023-05-21T07:44:44;100395.75;;;18.98;84.02
66681;BME280;53575;51.366;12.350;2023-05-21T07:47:10;100389.91;;;19.12;82.15
66681;BME280;53575;51.366;12.350;2023-05-21T07:49:35;100392.09;;;19.23;81.69
66681;BME280;53575;51.366;12.350;2023-05-21T07:52:01;100392.22;;;19.42;80.52
66681;BME280;53575;51.366;12.350;2023-05-21T07:54:27;100393.75;;;19.47;80.12
66681;BME280;53575;51.366;12.350;2023-05-21T07:56:52;100391.84;;;19.51;81.06
66681;BME280;53575;51.366;12.350;2023-05-21T07:59:18;100393.25;;;19.60;81.47
66681;BME280;53575;51.366;12.350;2023-05-21T08:01:43;100378.75;;;19.68;81.31
66681;BME280;53575;51.366;12.350;2023-05-21T08:04:09;100380.91;;;19.81;80.40
66681;BME280;53575;51.366;12.350;2023-05-21T08:06:34;100385.59;;;19.94;78.80
66681;BME280;53575;51.366;12.350;2023-05-21T08:09:02;100383.28;;;20.07;78.42
66681;BME280;53575;51.366;12.350;2023-05-21T08:11:27;100379.47;;;20.13;78.92
66681;BME280;53575;51.366;12.350;2023-05-21T08:13:53;100378.94;;;20.25;78.84
66681;BME280;53575;51.366;12.350;2023-05-21T08:16:18;100374.66;;;20.41;77.40
66681;BME280;53575;51.366;12.350;2023-05-21T08:18:45;100373.59;;;20.45;76.99
66681;BME280;53575;51.366;12.350;2023-05-21T08:21:10;100368.72;;;20.55;76.99
66681;BME280;53575;51.366;12.350;2023-05-21T08:23:36;100372.31;;;20.73;75.56
66681;BME280;53575;51.366;12.350;2023-05-21T08:26:01;100378.06;;;20.83;75.38
66681;BME280;53575;51.366;12.350;2023-05-21T08:28:27;100378.41;;;20.94;75.07
66681;BME280;53575;51.366;12.350;2023-05-21T08:30:53;100377.13;;;21.03;73.84
66681;BME280;53575;51.366;12.350;2023-05-21T08:33:19;100375.47;;;21.17;73.46
66681;BME280;53575;51.366;12.350;2023-05-21T08:35:44;100369.38;;;21.34;72.56
66681;BME280;53575;51.366;12.350;2023-05-21T08:38:10;100373.94;;;21.50;71.69
66681;BME280;53575;51.366;12.350;2023-05-21T08:40:35;100372.69;;;21.57;71.52
66681;BME280;53575;51.366;12.350;2023-05-21T08:43:01;100357.44;;;21.60;70.69
66681;BME280;53575;51.366;12.350;2023-05-21T08:45:31;100362.03;;;21.74;70.82
66681;BME280;53575;51.366;12.350;2023-05-21T08:48:01;100361.63;;;21.82;70.93
66681;BME280;53575;51.366;12.350;2023-05-21T08:50:28;100360.38;;;21.89;71.10
66681;BME280;53575;51.366;12.350;2023-05-21T08:52:55;100361.81;;;22.12;67.69
66681;BME280;53575;51.366;12.350;2023-05-21T08:55:21;100359.47;;;22.23;68.38
66681;BME280;53575;51.366;12.350;2023-05-21T08:57:52;100354.97;;;22.41;67.17
66681;BME280;53575;51.366;12.350;2023-05-21T09:00:18;100359.94;;;22.47;66.87
66681;BME280;53575;51.366;12.350;2023-05-21T09:02:45;100364.69;;;22.58;66.75
66681;BME280;53575;51.366;12.350;2023-05-21T09:05:11;100357.13;;;22.66;66.04
66681;BME280;53575;51.366;12.350;2023-05-21T09:08:11;100353.03;;;22.76;66.50
66681;BME280;53575;51.366;12.350;2023-05-21T09:10:40;100357.66;;;22.88;65.48
66681;BME280;53575;51.366;12.350;2023-05-21T09:13:10;100362.25;;;23.02;64.94
66681;BME280;53575;51.366;12.350;2023-05-21T09:15:36;100361.19;;;23.21;64.61
66681;BME280;53575;51.366;12.350;2023-05-21T09:18:01;100357.47;;;23.23;64.05
66681;BME280;53575;51.366;12.350;2023-05-21T09:20:27;100359.69;;;23.31;63.15
66681;BME280;53575;51.366;12.350;2023-05-21T09:22:53;100365.19;;;23.44;63.37
66681;BME280;53575;51.366;12.350;2023-05-21T09:25:24;100364.81;;;23.50;63.07
66681;BME280;53575;51.366;12.350;2023-05-21T09:27:54;100358.41;;;23.68;62.53
66681;BME280;53575;51.366;12.350;2023-05-21T09:30:20;100356.75;;;23.81;61.84
66681;BME280;53575;51.366;12.350;2023-05-21T09:32:51;100361.97;;;23.83;61.00
66681;BME280;53575;51.366;12.350;2023-05-21T09:35:18;100354.34;;;23.91;61.85
66681;BME280;53575;51.366;12.350;2023-05-21T09:37:46;100355.41;;;24.03;61.37
66681;BME280;53575;51.366;12.350;2023-05-21T09:40:16;100352.56;;;24.20;60.74
66681;BME280;53575;51.366;12.350;2023-05-21T09:42:46;100343.97;;;24.29;60.23
66681;BME280;53575;51.366;12.350;2023-05-21T09:47:45;100348.19;;;24.48;60.00
66681;BME280;53575;51.366;12.350;2023-05-21T09:50:12;100343.59;;;24.64;58.73
66681;BME280;53575;51.366;12.350;2023-05-21T09:52:38;100336.59;;;24.76;58.33
66681;BME280;53575;51.366;12.350;2023-05-21T09:55:05;100344.78;;;24.87;58.06
66681;BME280;53575;51.366;12.350;2023-05-21T09:57:31;100336.31;;;24.80;58.08
66681;BME280;53575;51.366;12.350;2023-05-21T09:59:57;100331.63;;;24.84;58.03
66681;BME280;53575;51.366;12.350;2023-05-21T10:02:23;100333.91;;;25.03;58.00
66681;BME280;53575;51.366;12.350;2023-05-21T10:04:50;100335.34;;;25.23;57.46
66681;BME280;53575;51.366;12.350;2023-05-21T10:07:18;100341.34;;;25.39;57.20
66681;BME280;53575;51.366;12.350;2023-05-21T10:09:53;100331.22;;;25.57;55.98
66681;BME280;53575;51.366;12.350;2023-05-21T10:12:22;100322.28;;;25.84;52.45
66681;BME280;53575;51.366;12.350;2023-05-21T10:14:53;100331.06;;;25.98;51.62
66681;BME280;53575;51.366;12.350;2023-05-21T10:17:23;100325.06;;;26.08;51.61
66681;BME280;53575;51.366;12.350;2023-05-21T10:19:50;100325.50;;;26.14;51.69
66681;BME280;53575;51.366;12.350;2023-05-21T10:22:16;100316.25;;;26.31;51.34
66681;BME280;53575;51.366;12.350;2023-05-21T10:24:42;100314.84;;;26.38;51.86
66681;BME280;53575;51.366;12.350;2023-05-21T10:27:08;100308.63;;;26.25;52.04
66681;BME280;53575;51.366;12.350;2023-05-21T10:29:36;100305.75;;;26.41;51.32
66681;BME280;53575;51.366;12.350;2023-05-21T10:32:02;100308.28;;;26.55;51.67
66681;BME280;53575;51.366;12.350;2023-05-21T10:34:29;100306.44;;;26.68;50.22
66681;BME280;53575;51.366;12.350;2023-05-21T10:36:57;100303.97;;;26.65;49.93
66681;BME280;53575;51.366;12.350;2023-05-21T10:39:25;100301.63;;;26.61;50.17
66681;BME280;53575;51.366;12.350;2023-05-21T10:45:22;100307.13;;;26.83;50.09
66681;BME280;53575;51.366;12.350;2023-05-21T10:53:53;100297.09;;;27.22;47.29
66681;BME280;53575;51.366;12.350;2023-05-21T10:56:34;100295.69;;;27.40;46.87
66681;BME280;53575;51.366;12.350;2023-05-21T11:01:38;100292.75;;;27.79;48.25
66681;BME280;53575;51.366;12.350;2023-05-21T11:04:05;100284.69;;;27.79;44.99
66681;BME280;53575;51.366;12.350;2023-05-21T11:06:30;100295.81;;;27.74;46.52
66681;BME280;53575;51.366;12.350;2023-05-21T11:09:00;100284.31;;;27.83;44.65
66681;BME280;53575;51.366;12.350;2023-05-21T11:11:48;100287.88;;;27.95;44.25
66681;BME280;53575;51.366;12.350;2023-05-21T11:14:40;100290.06;;;28.24;43.32
66681;BME280;53575;51.366;12.350;2023-05-21T11:17:35;100286.53;;;28.46;43.10
66681;BME280;53575;51.366;12.350;2023-05-21T11:20:10;100278.69;;;28.54;41.69
66681;BME280;53575;51.366;12.350;2023-05-21T11:22:36;100283.91;;;28.78;42.01
66681;BME280;53575;51.366;12.350;2023-05-21T11:25:02;100284.81;;;28.99;39.94
66681;BME280;53575;51.366;12.350;2023-05-21T11:27:37;100279.94;;;29.25;38.52
66681;BME280;53575;51.366;12.350;2023-05-21T11:30:13;100284.59;;;29.44;38.98
66681;BME280;53575;51.366;12.350;2023-05-21T11:35:58;100273.31;;;30.02;38.27
66681;BME280;53575;51.366;12.350;2023-05-21T11:38:30;100274.63;;;30.07;37.72
66681;BME280;53575;51.366;12.350;2023-05-21T11:41:00;100272.56;;;30.21;37.65
66681;BME280;53575;51.366;12.350;2023-05-21T11:43:27;100269.28;;;30.17;37.47
66681;BME280;53575;51.366;12.350;2023-05-21T11:45:53;100269.06;;;30.30;37.79
66681;BME280;53575;51.366;12.350;2023-05-21T11:48:23;100276.16;;;30.31;35.76
66681;BME280;53575;51.366;12.350;2023-05-21T11:50:48;100268.06;;;30.31;35.89
66681;BME280;53575;51.366;12.350;2023-05-21T11:53:14;100270.59;;;30.23;36.84
66681;BME280;53575;51.366;12.350;2023-05-21T11:55:39;100264.22;;;30.24;37.07
66681;BME280;53575;51.366;12.350;2023-05-21T11:58:12;100278.75;;;30.11;37.73
66681;BME280;53575;51.366;12.350;2023-05-21T12:00:39;100270.09;;;30.08;37.23
66681;BME280;53575;51.366;12.350;2023-05-21T12:03:04;100269.19;;;29.98;37.91
66681;BME280;53575;51.366;12.350;2023-05-21T12:05:46;100271.63;;;30.01;38.86
66681;BME280;53575;51.366;12.350;2023-05-21T12:08:12;100271.66;;;30.10;38.38
66681;BME280;53575;51.366;12.350;2023-05-21T12:10:37;100274.47;;;29.99;39.36
66681;BME280;53575;51.366;12.350;2023-05-21T12:13:04;100271.97;;;29.86;39.18
66681;BME280;53575;51.366;12.350;2023-05-21T12:15:30;100270.22;;;30.06;38.90
66681;BME280;53575;51.366;12.350;2023-05-21T12:17:56;100266.38;;;30.30;38.58
66681;BME280;53575;51.366;12.350;2023-05-21T12:20:21;100259.44;;;30.06;38.58
66681;BME280;53575;51.366;12.350;2023-05-21T12:22:48;100262.13;;;30.37;38.59
66681;BME280;53575;51.366;12.350;2023-05-21T12:25:16;100255.81;;;30.17;38.29
66681;BME280;53575;51.366;12.350;2023-05-21T12:27:44;100263.69;;;30.30;38.50
66681;BME280;53575;51.366;12.350;2023-05-21T12:30:10;100260.69;;;30.02;38.39
66681;BME280;53575;51.366;12.350;2023-05-21T12:32:39;100264.38;;;29.92;38.11
66681;BME280;53575;51.366;12.350;2023-05-21T12:35:08;100265.91;;;29.94;38.18
66681;BME280;53575;51.366;12.350;2023-05-21T12:37:33;100246.78;;;29.67;38.00
66681;BME280;53575;51.366;12.350;2023-05-21T12:40:04;100257.88;;;29.52;38.07
66681;BME280;53575;51.366;12.350;2023-05-21T12:42:32;100256.63;;;29.56;37.95
66681;BME280;53575;51.366;12.350;2023-05-21T12:45:10;100258.00;;;29.72;37.79
66681;BME280;53575;51.366;12.350;2023-05-21T12:47:35;100253.34;;;29.74;37.93
66681;BME280;53575;51.366;12.350;2023-05-21T12:50:07;100257.91;;;29.83;37.84
66681;BME280;53575;51.366;12.350;2023-05-21T12:52:33;100256.19;;;30.13;37.19